sensor_id;sensor_type;location;lat;lon;timestamp;pressure;altitude;pressure_sealevel;temperature;humidity
37068;BME280;22982;42.848;25.468;2023-04-22T00:04:17;95968.94;;;5.65;100.00
37068;BME280;22982;42.848;25.468;2023-04-22T00:09:22;95969.31;;;5.77;100.00
37068;BME280;22982;42.848;25.468;2023-04-22T00:14:26;95950.72;;;5.65;100.00
37068;BME280;22982;42.848;25.468;2023-04-22T00:19:28;95952.56;;;5.63;100.00
37068;BME280;22982;42.848;25.468;2023-04-22T00:24:31;95968.38;;;5.78;100.00
37068;BME280;22982;42.848;25.468;2023-04-22T00:29:34;95938.66;;;5.45;100.00
37068;BME280;22982;42.848;25.468;2023-04-22T00:34:37;95967.34;;;5.63;100.00
37068;BME280;22982;42.848;25.468;2023-04-22T00:39:40;95954.47;;;5.79;100.00
37068;BME280;22982;42.848;25.468;2023-04-22T00:44:45;95955.75;;;5.70;100.00
37068;BME280;22982;42.848;25.468;2023-04-22T00:49:50;95949.69;;;5.50;100.00
37068;BME280;22982;42.848;25.468;2023-04-22T00:54:52;95954.00;;;5.51;100.00
37068;BME280;22982;42.848;25.468;2023-04-22T00:59:54;95967.16;;;5.67;100.00
37068;BME280;22982;42.848;25.468;2023-04-22T01:04:58;95948.91;;;5.48;100.00
37068;BME280;22982;42.848;25.468;2023-04-22T01:10:19;95968.31;;;5.41;100.00
37068;BME280;22982;42.848;25.468;2023-04-22T01:15:23;95973.22;;;5.47;100.00
37068;BME280;22982;42.848;25.468;2023-04-22T01:20:28;95968.94;;;5.46;100.00
37068;BME280;22982;42.848;25.468;2023-04-22T01:25:32;95956.38;;;5.75;100.00
37068;BME280;22982;42.848;25.468;2023-04-22T01:30:34;95949.69;;;5.88;100.00
37068;BME280;22982;42.848;25.468;2023-04-22T01:35:38;95942.00;;;5.85;100.00
37068;BME280;22982;42.848;25.468;2023-04-22T01:40:40;95959.69;;;5.98;100.00
37068;BME280;22982;42.848;25.468;2023-04-22T01:45:44;95960.53;;;5.98;100.00
37068;BME280;22982;42.848;25.468;2023-04-22T01:50:46;95935.34;;;5.61;100.00
37068;BME280;22982;42.848;25.468;2023-04-22T01:55:48;95945.19;;;5.54;100.00
37068;BME280;22982;42.848;25.468;2023-04-22T02:00:51;95940.25;;;5.29;100.00
37068;BME280;22982;42.848;25.468;2023-04-22T02:05:53;95942.53;;;5.55;100.00
37068;BME280;22982;42.848;25.468;2023-04-22T02:10:56;95938.66;;;5.64;100.00
37068;BME280;22982;42.848;25.468;2023-04-22T02:16:01;95912.44;;;5.50;100.00
37068;BME280;22982;42.848;25.468;2023-04-22T02:21:04;95911.88;;;5.43;100.00
37068;BME280;22982;42.848;25.468;2023-04-22T02:26:07;95930.41;;;5.54;100.00
37068;BME280;22982;42.848;25.468;2023-04-22T02:31:09;95948.06;;;5.67;100.00
37068;BME280;22982;42.848;25.468;2023-04-22T02:36:14;95921.97;;;5.11;100.00
37068;BME280;22982;42.848;25.468;2023-04-22T02:41:17;95949.59;;;5.33;100.00
37068;BME280;22982;42.848;25.468;2023-04-22T02:46:19;95921.41;;;5.24;100.00
37068;BME280;22982;42.848;25.468;2023-04-22T02:51:22;95955.84;;;5.29;100.00
37068;BME280;22982;42.848;25.468;2023-04-22T02:56:25;95961.88;;;5.29;100.00
37068;BME280;22982;42.848;25.468;2023-04-22T03:01:28;95902.13;;;4.90;100.00
37068;BME280;22982;42.848;25.468;2023-04-22T03:06:34;95937.09;;;5.22;100.00
37068;BME280;22982;42.848;25.468;2023-04-22T03:11:37;95922.94;;;5.09;100.00
37068;BME280;22982;42.848;25.468;2023-04-22T03:16:40;95953.88;;;5.34;100.00
37068;BME280;22982;42.848;25.468;2023-04-22T03:21:43;95929.91;;;5.08;100.00
37068;BME280;22982;42.848;25.468;2023-04-22T03:26:46;95950.06;;;4.83;100.00
37068;BME280;22982;42.848;25.468;2023-04-22T03:31:48;95958.91;;;4.99;100.00
37068;BME280;22982;42.848;25.468;2023-04-22T03:36:52;95970.00;;;5.03;100.00
37068;BME280;22982;42.848;25.468;2023-04-22T03:41:55;95977.28;;;5.34;100.00
37068;BME280;22982;42.848;25.468;2023-04-22T03:46:59;95953.88;;;5.34;100.00
37068;BME280;22982;42.848;25.468;2023-04-22T03:52:07;95985.97;;;5.53;100.00
37068;BME280;22982;42.848;25.468;2023-04-22T03:57:16;95948.81;;;5.12;100.00
37068;BME280;22982;42.848;25.468;2023-04-22T04:02:20;95990.66;;;5.45;100.00
37068;BME280;22982;42.848;25.468;2023-04-22T04:07:23;96023.09;;;5.76;100.00
37068;BME280;22982;42.848;25.468;2023-04-22T04:12:26;96005.81;;;5.75;100.00
37068;BME280;22982;42.848;25.468;2023-04-22T04:17:29;96033.25;;;6.20;100.00
37068;BME280;22982;42.848;25.468;2023-04-22T04:22:35;96016.38;;;6.29;100.00
37068;BME280;22982;42.848;25.468;2023-04-22T04:27:40;96012.81;;;6.49;100.00
37068;BME280;22982;42.848;25.468;2023-04-22T04:32:45;96030.47;;;6.42;100.00
37068;BME280;22982;42.848;25.468;2023-04-22T04:37:51;96010.66;;;6.40;100.00
37068;BME280;22982;42.848;25.468;2023-04-22T04:42:55;96035.88;;;6.57;100.00
37068;BME280;22982;42.848;25.468;2023-04-22T04:48:05;96025.94;;;6.82;100.00
37068;BME280;22982;42.848;25.468;2023-04-22T04:53:13;96037.13;;;7.37;100.00
37068;BME280;22982;42.848;25.468;2023-04-22T04:58:17;96030.38;;;7.33;100.00
37068;BME280;22982;42.848;25.468;2023-04-22T05:03:25;96048.41;;;7.20;100.00
37068;BME280;22982;42.848;25.468;2023-04-22T05:08:28;96028.16;;;7.25;100.00
37068;BME280;22982;42.848;25.468;2023-04-22T05:13:38;96024.84;;;7.72;100.00
37068;BME280;22982;42.848;25.468;2023-04-22T05:18:44;96008.03;;;8.25;100.00
37068;BME280;22982;42.848;25.468;2023-04-22T05:23:52;96032.56;;;8.71;100.00
37068;BME280;22982;42.848;25.468;2023-04-22T05:28:55;96024.22;;;9.25;97.20
37068;BME280;22982;42.848;25.468;2023-04-22T05:33:58;96022.41;;;9.99;97.90
37068;BME280;22982;42.848;25.468;2023-04-22T05:39:01;96026.28;;;10.49;91.65
37068;BME280;22982;42.848;25.468;2023-04-22T05:44:06;96022.66;;;10.91;87.45
37068;BME280;22982;42.848;25.468;2023-04-22T05:49:09;96012.63;;;10.71;85.97
37068;BME280;22982;42.848;25.468;2023-04-22T05:54:30;96025.84;;;10.97;85.00
37068;BME280;22982;42.848;25.468;2023-04-22T05:59:33;96025.34;;;11.17;84.12
37068;BME280;22982;42.848;25.468;2023-04-22T06:04:36;96049.63;;;11.34;84.23
37068;BME280;22982;42.848;25.468;2023-04-22T06:09:40;96038.56;;;11.28;82.14
37068;BME280;22982;42.848;25.468;2023-04-22T06:14:43;96052.59;;;11.42;80.67
37068;BME280;22982;42.848;25.468;2023-04-22T06:19:45;96048.69;;;11.47;80.11
37068;BME280;22982;42.848;25.468;2023-04-22T06:24:48;96053.75;;;11.89;77.23
37068;BME280;22982;42.848;25.468;2023-04-22T06:29:51;96064.56;;;12.23;74.64
37068;BME280;22982;42.848;25.468;2023-04-22T06:34:54;96042.00;;;12.07;72.13
37068;BME280;22982;42.848;25.468;2023-04-22T06:39:57;96035.38;;;11.89;71.79
37068;BME280;22982;42.848;25.468;2023-04-22T06:45:24;96069.19;;;12.19;71.12
37068;BME280;22982;42.848;25.468;2023-04-22T06:50:45;96054.38;;;12.55;67.98
37068;BME280;22982;42.848;25.468;2023-04-22T06:55:51;96076.19;;;12.81;68.47
37068;BME280;22982;42.848;25.468;2023-04-22T07:00:55;96065.72;;;12.93;73.26
37068;BME280;22982;42.848;25.468;2023-04-22T07:05:58;96040.69;;;12.63;74.60
37068;BME280;22982;42.848;25.468;2023-04-22T07:11:01;96069.19;;;13.17;74.48
37068;BME280;22982;42.848;25.468;2023-04-22T07:16:25;96041.78;;;13.20;71.09
37068;BME280;22982;42.848;25.468;2023-04-22T07:21:27;96073.97;;;13.48;70.19
37068;BME280;22982;42.848;25.468;2023-04-22T07:26:30;96065.06;;;13.73;68.59
37068;BME280;22982;42.848;25.468;2023-04-22T07:31:35;96073.66;;;13.64;70.83
37068;BME280;22982;42.848;25.468;2023-04-22T07:36:39;96069.53;;;13.37;72.89
37068;BME280;22982;42.848;25.468;2023-04-22T07:41:41;96068.34;;;13.17;75.84
37068;BME280;22982;42.848;25.468;2023-04-22T07:46:43;96072.16;;;13.13;78.50
37068;BME280;22982;42.848;25.468;2023-04-22T07:51:46;96050.88;;;12.92;79.20
37068;BME280;22982;42.848;25.468;2023-04-22T07:56:49;96092.53;;;13.22;78.78
37068;BME280;22982;42.848;25.468;2023-04-22T08:01:52;96083.91;;;13.44;77.15
37068;BME280;22982;42.848;25.468;2023-04-22T08:06:54;96080.72;;;13.52;76.54
37068;BME280;22982;42.848;25.468;2023-04-22T08:11:58;96082.38;;;13.53;77.29
37068;BME280;22982;42.848;25.468;2023-04-22T08:17:02;96099.69;;;13.79;76.23
37068;BME280;22982;42.848;25.468;2023-04-22T08:22:04;96104.41;;;13.98;76.25
37068;BME280;22982;42.848;25.468;2023-04-22T08:27:08;96102.75;;;14.20;74.13
37068;BME280;22982;42.848;25.468;2023-04-22T08:32:10;96096.88;;;14.39;74.14
37068;BME280;22982;42.848;25.468;2023-04-22T08:37:13;96078.66;;;14.47;72.97
37068;BME280;22982;42.848;25.468;2023-04-22T08:42:16;96086.91;;;14.88;69.31
37068;BME280;22982;42.848;25.468;2023-04-22T08:47:20;96091.59;;;14.84;66.82
37068;BME280;22982;42.848;25.468;2023-04-22T08:52:28;96098.47;;;15.08;65.83
37068;BME280;22982;42.848;25.468;2023-04-22T08:57:31;96079.41;;;15.04;64.34
37068;BME280;22982;42.848;25.468;2023-04-22T09:02:36;96067.63;;;15.08;64.84
37068;BME280;22982;42.848;25.468;2023-04-22T09:07:40;96084.22;;;15.64;63.54
37068;BME280;22982;42.848;25.468;2023-04-22T09:12:43;96094.97;;;16.14;60.10
37068;BME280;22982;42.848;25.468;2023-04-22T09:17:45;96089.94;;;16.42;61.24
37068;BME280;22982;42.848;25.468;2023-04-22T09:22:49;96078.00;;;16.48;59.29
37068;BME280;22982;42.848;25.468;2023-04-22T09:27:53;96072.09;;;16.75;59.39
37068;BME280;22982;42.848;25.468;2023-04-22T09:33:01;96078.38;;;16.74;57.37
37068;BME280;22982;42.848;25.468;2023-04-22T09:38:07;96074.47;;;16.68;53.77
37068;BME280;22982;42.848;25.468;2023-04-22T09:43:11;96056.34;;;16.33;54.42
37068;BME280;22982;42.848;25.468;2023-04-22T09:48:17;96050.50;;;16.70;52.93
37068;BME280;22982;42.848;25.468;2023-04-22T09:53:21;96077.66;;;16.72;53.73
37068;BME280;22982;42.848;25.468;2023-04-22T09:58:23;96072.19;;;16.63;53.48
37068;BME280;22982;42.848;25.468;2023-04-22T10:03:29;96058.44;;;16.70;53.85
37068;BME280;22982;42.848;25.468;2023-04-22T10:08:32;96070.47;;;16.43;53.17
37068;BME280;22982;42.848;25.468;2023-04-22T10:13:35;96058.94;;;16.54;53.49
37068;BME280;22982;42.848;25.468;2023-04-22T10:18:38;96060.28;;;16.38;50.86
37068;BME280;22982;42.848;25.468;2023-04-22T10:23:46;96057.13;;;16.54;50.63
37068;BME280;22982;42.848;25.468;2023-04-22T10:28:49;96055.03;;;16.98;49.72
37068;BME280;22982;42.848;25.468;2023-04-22T10:34:08;96044.97;;;17.70;48.71
37068;BME280;22982;42.848;25.468;2023-04-22T10:39:16;96034.31;;;18.09;45.63
37068;BME280;22982;42.848;25.468;2023-04-22T10:44:19;96042.13;;;18.48;44.26
37068;BME280;22982;42.848;25.468;2023-04-22T10:49:25;96020.16;;;18.74;42.10
37068;BME280;22982;42.848;25.468;2023-04-22T10:59:46;96030.53;;;17.26;40.57
37068;BME280;22982;42.848;25.468;2023-04-22T11:05:21;96040.75;;;17.77;42.36
37068;BME280;22982;42.848;25.468;2023-04-22T11:10:35;96044.16;;;17.60;43.28
37068;BME280;22982;42.848;25.468;2023-04-22T11:15:47;96055.00;;;17.96;43.98
37068;BME280;22982;42.848;25.468;2023-04-22T11:20:51;96044.72;;;18.21;42.73
37068;BME280;22982;42.848;25.468;2023-04-22T11:25:57;96041.19;;;17.83;44.01
37068;BME280;22982;42.848;25.468;2023-04-22T11:31:04;96058.41;;;17.20;44.36
37068;BME280;22982;42.848;25.468;2023-04-22T11:36:11;96050.31;;;17.12;43.26
37068;BME280;22982;42.848;25.468;2023-04-22T11:41:19;96050.84;;;17.45;41.52
37068;BME280;22982;42.848;25.468;2023-04-22T11:46:29;96055.31;;;17.54;40.63
37068;BME280;22982;42.848;25.468;2023-04-22T11:51:33;96048.63;;;17.69;38.81
37068;BME280;22982;42.848;25.468;2023-04-22T11:56:38;96054.66;;;18.18;38.48
37068;BME280;22982;42.848;25.468;2023-04-22T12:01:41;96046.50;;;18.30;40.07
37068;BME280;22982;42.848;25.468;2023-04-22T12:06:45;96046.75;;;18.09;39.44
37068;BME280;22982;42.848;25.468;2023-04-22T12:11:50;96054.31;;;18.41;38.57
37068;BME280;22982;42.848;25.468;2023-04-22T12:16:52;96049.06;;;18.22;39.24
37068;BME280;22982;42.848;25.468;2023-04-22T12:21:55;96038.22;;;19.16;36.42
37068;BME280;22982;42.848;25.468;2023-04-22T12:26:58;96017.72;;;19.26;36.54
37068;BME280;22982;42.848;25.468;2023-04-22T12:32:00;96030.38;;;19.32;36.92
37068;BME280;22982;42.848;25.468;2023-04-22T12:37:03;96029.16;;;19.63;36.33
37068;BME280;22982;42.848;25.468;2023-04-22T12:42:09;96040.16;;;18.50;43.09
37068;BME280;22982;42.848;25.468;2023-04-22T12:47:15;96051.00;;;17.53;48.26
37068;BME280;22982;42.848;25.468;2023-04-22T12:52:19;96067.63;;;16.04;51.65
37068;BME280;22982;42.848;25.468;2023-04-22T12:57:22;96051.97;;;16.12;52.27
37068;BME280;22982;42.848;25.468;2023-04-22T13:02:25;96072.56;;;15.66;53.25
37068;BME280;22982;42.848;25.468;2023-04-22T13:07:27;96066.03;;;15.49;52.45
37068;BME280;22982;42.848;25.468;2023-04-22T13:12:30;96071.66;;;15.24;52.41
37068;BME280;22982;42.848;25.468;2023-04-22T13:17:33;96039.03;;;14.92;53.62
37068;BME280;22982;42.848;25.468;2023-04-22T13:22:37;96024.06;;;15.14;54.23
37068;BME280;22982;42.848;25.468;2023-04-22T13:27:41;96054.41;;;15.20;52.82
37068;BME280;22982;42.848;25.468;2023-04-22T13:32:44;96042.69;;;15.01;52.24
37068;BME280;22982;42.848;25.468;2023-04-22T13:37:47;96046.66;;;15.28;51.27
37068;BME280;22982;42.848;25.468;2023-04-22T13:42:49;96046.94;;;15.25;51.25
37068;BME280;22982;42.848;25.468;2023-04-22T13:47:52;96043.56;;;15.23;50.88
37068;BME280;22982;42.848;25.468;2023-04-22T13:52:55;96032.22;;;15.11;51.33
37068;BME280;22982;42.848;25.468;2023-04-22T13:57:57;96050.53;;;15.24;49.51
37068;BME280;22982;42.848;25.468;2023-04-22T14:03:02;96060.94;;;15.04;50.23
37068;BME280;22982;42.848;25.468;2023-04-22T14:08:05;96074.00;;;15.38;49.43
37068;BME280;22982;42.848;25.468;2023-04-22T14:13:08;96060.28;;;15.12;49.81
37068;BME280;22982;42.848;25.468;2023-04-22T14:18:10;96053.22;;;15.12;49.74
37068;BME280;22982;42.848;25.468;2023-04-22T14:23:13;96038.16;;;15.03;49.64
37068;BME280;22982;42.848;25.468;2023-04-22T14:28:16;96088.03;;;15.18;49.68
37068;BME280;22982;42.848;25.468;2023-04-22T14:33:19;96070.06;;;15.32;49.90
37068;BME280;22982;42.848;25.468;2023-04-22T14:38:23;96079.53;;;15.35;49.56
37068;BME280;22982;42.848;25.468;2023-04-22T14:43:25;96055.59;;;15.16;49.05
37068;BME280;22982;42.848;25.468;2023-04-22T14:48:27;96079.88;;;15.09;50.91
37068;BME280;22982;42.848;25.468;2023-04-22T14:53:32;96074.94;;;14.61;50.33
37068;BME280;22982;42.848;25.468;2023-04-22T14:58:38;96083.56;;;14.52;50.94
37068;BME280;22982;42.848;25.468;2023-04-22T15:03:41;96088.16;;;14.72;50.72
37068;BME280;22982;42.848;25.468;2023-04-22T15:08:46;96047.25;;;14.44;51.30
37068;BME280;22982;42.848;25.468;2023-04-22T15:13:49;96029.63;;;14.33;51.15
37068;BME280;22982;42.848;25.468;2023-04-22T15:18:53;96059.59;;;14.32;50.54
37068;BME280;22982;42.848;25.468;2023-04-22T15:23:56;96062.72;;;14.38;50.60
37068;BME280;22982;42.848;25.468;2023-04-22T15:28:59;96074.19;;;14.70;50.81
37068;BME280;22982;42.848;25.468;2023-04-22T15:34:02;96067.63;;;14.53;51.50
37068;BME280;22982;42.848;25.468;2023-04-22T15:39:04;96067.38;;;14.57;51.47
37068;BME280;22982;42.848;25.468;2023-04-22T15:44:08;96065.84;;;14.65;50.09
37068;BME280;22982;42.848;25.468;2023-04-22T15:49:13;96037.41;;;14.58;54.08
37068;BME280;22982;42.848;25.468;2023-04-22T15:54:17;96065.69;;;14.67;57.74
37068;BME280;22982;42.848;25.468;2023-04-22T15:59:21;96055.53;;;14.62;59.54
37068;BME280;22982;42.848;25.468;2023-04-22T16:04:24;96050.19;;;14.85;67.87
37068;BME280;22982;42.848;25.468;2023-04-22T16:09:27;96065.53;;;14.91;61.14
37068;BME280;22982;42.848;25.468;2023-04-22T16:14:33;96095.78;;;14.76;56.99
37068;BME280;22982;42.848;25.468;2023-04-22T16:19:36;96088.13;;;14.61;64.36
37068;BME280;22982;42.848;25.468;2023-04-22T16:24:40;96077.47;;;14.40;67.31
37068;BME280;22982;42.848;25.468;2023-04-22T16:29:45;96112.47;;;14.65;70.03
37068;BME280;22982;42.848;25.468;2023-04-22T16:34:49;96074.09;;;14.49;85.74
37068;BME280;22982;42.848;25.468;2023-04-22T16:39:51;96113.66;;;14.38;72.94
37068;BME280;22982;42.848;25.468;2023-04-22T16:44:58;96105.63;;;14.40;91.48
37068;BME280;22982;42.848;25.468;2023-04-22T16:50:00;96134.16;;;14.12;79.87
37068;BME280;22982;42.848;25.468;2023-04-22T16:55:04;96126.66;;;13.83;83.06
37068;BME280;22982;42.848;25.468;2023-04-22T17:00:07;96143.69;;;13.90;89.36
37068;BME280;22982;42.848;25.468;2023-04-22T17:05:10;96074.72;;;13.26;92.75
37068;BME280;22982;42.848;25.468;2023-04-22T17:10:13;96123.22;;;13.58;92.05
37068;BME280;22982;42.848;25.468;2023-04-22T17:15:16;96134.03;;;13.67;95.52
37068;BME280;22982;42.848;25.468;2023-04-22T17:20:18;96112.84;;;13.33;89.66
37068;BME280;22982;42.848;25.468;2023-04-22T17:25:21;96151.72;;;13.53;95.00
37068;BME280;22982;42.848;25.468;2023-04-22T17:30:24;96158.88;;;13.51;93.04
37068;BME280;22982;42.848;25.468;2023-04-22T17:35:27;96146.31;;;13.55;93.74
37068;BME280;22982;42.848;25.468;2023-04-22T17:40:30;96159.50;;;13.31;90.96
37068;BME280;22982;42.848;25.468;2023-04-22T17:45:32;96139.59;;;12.66;89.00
37068;BME280;22982;42.848;25.468;2023-04-22T17:50:35;96183.38;;;11.62;89.14
37068;BME280;22982;42.848;25.468;2023-04-22T17:55:37;96196.56;;;10.79;96.36
37068;BME280;22982;42.848;25.468;2023-04-22T18:00:41;96177.25;;;10.23;97.12
37068;BME280;22982;42.848;25.468;2023-04-22T18:05:43;96215.81;;;9.76;100.00
37068;BME280;22982;42.848;25.468;2023-04-22T18:10:46;96193.28;;;9.27;100.00
37068;BME280;22982;42.848;25.468;2023-04-22T18:15:48;96211.84;;;9.07;100.00
37068;BME280;22982;42.848;25.468;2023-04-22T18:20:52;96189.16;;;8.75;100.00
37068;BME280;22982;42.848;25.468;2023-04-22T18:25:54;96192.19;;;8.68;100.00
37068;BME280;22982;42.848;25.468;2023-04-22T18:30:57;96218.47;;;8.65;100.00
37068;BME280;22982;42.848;25.468;2023-04-22T18:36:00;96238.63;;;8.62;100.00
37068;BME280;22982;42.848;25.468;2023-04-22T18:41:03;96237.00;;;8.27;100.00
37068;BME280;22982;42.848;25.468;2023-04-22T18:46:06;96204.78;;;7.75;100.00
37068;BME280;22982;42.848;25.468;2023-04-22T18:51:09;96252.38;;;7.80;100.00
37068;BME280;22982;42.848;25.468;2023-04-22T18:56:12;96226.28;;;7.63;100.00
37068;BME280;22982;42.848;25.468;2023-04-22T19:01:14;96223.50;;;7.48;100.00
37068;BME280;22982;42.848;25.468;2023-04-22T19:06:18;96223.53;;;7.29;100.00
37068;BME280;22982;42.848;25.468;2023-04-22T19:11:21;96275.59;;;7.50;100.00
37068;BME280;22982;42.848;25.468;2023-04-22T19:16:24;96256.25;;;7.18;100.00
37068;BME280;22982;42.848;25.468;2023-04-22T19:21:27;96253.16;;;7.09;100.00
37068;BME280;22982;42.848;25.468;2023-04-22T19:26:32;96253.22;;;7.27;100.00
37068;BME280;22982;42.848;25.468;2023-04-22T19:31:34;96245.50;;;7.06;100.00
37068;BME280;22982;42.848;25.468;2023-04-22T19:36:36;96273.88;;;7.13;100.00
37068;BME280;22982;42.848;25.468;2023-04-22T19:41:39;96257.13;;;6.99;100.00
37068;BME280;22982;42.848;25.468;2023-04-22T19:46:42;96243.19;;;6.81;100.00
37068;BME280;22982;42.848;25.468;2023-04-22T19:51:44;96261.91;;;6.89;100.00
37068;BME280;22982;42.848;25.468;2023-04-22T19:56:48;96244.69;;;6.66;100.00
37068;BME280;22982;42.848;25.468;2023-04-22T20:01:52;96248.06;;;6.49;100.00
37068;BME280;22982;42.848;25.468;2023-04-22T20:06:56;96245.00;;;6.60;100.00
37068;BME280;22982;42.848;25.468;2023-04-22T20:12:01;96261.28;;;6.45;100.00
37068;BME280;22982;42.848;25.468;2023-04-22T20:17:06;96269.34;;;6.20;100.00
37068;BME280;22982;42.848;25.468;2023-04-22T20:22:10;96297.38;;;6.33;100.00
37068;BME280;22982;42.848;25.468;2023-04-22T20:27:16;96289.19;;;6.22;100.00
37068;BME280;22982;42.848;25.468;2023-04-22T20:32:20;96224.28;;;5.77;100.00
37068;BME280;22982;42.848;25.468;2023-04-22T20:37:30;96245.59;;;5.64;100.00
37068;BME280;22982;42.848;25.468;2023-04-22T20:42:33;96234.72;;;5.54;100.00
37068;BME280;22982;42.848;25.468;2023-04-22T20:47:37;96266.25;;;5.47;100.00
37068;BME280;22982;42.848;25.468;2023-04-22T20:52:41;96297.81;;;5.60;100.00
37068;BME280;22982;42.848;25.468;2023-04-22T20:57:44;96272.97;;;5.30;100.00
37068;BME280;22982;42.848;25.468;2023-04-22T21:02:49;96292.25;;;5.47;100.00
37068;BME280;22982;42.848;25.468;2023-04-22T21:07:53;96311.13;;;5.52;100.00
37068;BME280;22982;42.848;25.468;2023-04-22T21:13:01;96280.66;;;5.33;100.00
37068;BME280;22982;42.848;25.468;2023-04-22T21:18:07;96256.88;;;5.21;100.00
37068;BME280;22982;42.848;25.468;2023-04-22T21:23:11;96244.09;;;5.14;100.00
37068;BME280;22982;42.848;25.468;2023-04-22T21:28:23;96249.94;;;5.21;100.00
37068;BME280;22982;42.848;25.468;2023-04-22T21:33:33;96255.84;;;5.25;100.00
37068;BME280;22982;42.848;25.468;2023-04-22T21:38:37;96309.56;;;5.26;100.00
37068;BME280;22982;42.848;25.468;2023-04-22T21:43:39;96251.47;;;4.81;100.00
37068;BME280;22982;42.848;25.468;2023-04-22T21:48:42;96281.91;;;4.77;100.00
37068;BME280;22982;42.848;25.468;2023-04-22T21:53:45;96295.00;;;4.74;100.00
37068;BME280;22982;42.848;25.468;2023-04-22T21:58:48;96294.91;;;4.54;100.00
37068;BME280;22982;42.848;25.468;2023-04-22T22:03:50;96270.97;;;4.20;100.00
37068;BME280;22982;42.848;25.468;2023-04-22T22:08:54;96273.31;;;4.28;100.00
37068;BME280;22982;42.848;25.468;2023-04-22T22:13:57;96293.00;;;4.34;100.00
37068;BME280;22982;42.848;25.468;2023-04-22T22:19:01;96286.22;;;4.05;100.00
37068;BME280;22982;42.848;25.468;2023-04-22T22:24:06;96310.34;;;4.32;100.00
37068;BME280;22982;42.848;25.468;2023-04-22T22:29:10;96258.25;;;4.13;100.00
37068;BME280;22982;42.848;25.468;2023-04-22T22:34:16;96222.91;;;3.85;100.00
37068;BME280;22982;42.848;25.468;2023-04-22T22:39:19;96289.66;;;4.30;100.00
37068;BME280;22982;42.848;25.468;2023-04-22T22:44:21;96246.72;;;3.96;100.00
37068;BME280;22982;42.848;25.468;2023-04-22T22:49:24;96237.28;;;3.94;100.00
37068;BME280;22982;42.848;25.468;2023-04-22T22:54:27;96294.28;;;4.22;100.00
37068;BME280;22982;42.848;25.468;2023-04-22T22:59:33;96296.72;;;4.27;100.00
37068;BME280;22982;42.848;25.468;2023-04-22T23:04:36;96255.63;;;3.89;100.00
37068;BME280;22982;42.848;25.468;2023-04-22T23:09:40;96293.19;;;4.02;100.00
37068;BME280;22982;42.848;25.468;2023-04-22T23:14:43;96276.16;;;3.95;100.00
37068;BME280;22982;42.848;25.468;2023-04-22T23:19:46;96295.31;;;3.91;100.00
37068;BME280;22982;42.848;25.468;2023-04-22T23:24:52;96262.00;;;3.52;100.00
37068;BME280;22982;42.848;25.468;2023-04-22T23:29:56;96278.44;;;3.53;100.00
37068;BME280;22982;42.848;25.468;2023-04-22T23:34:59;96267.28;;;3.22;100.00
37068;BME280;22982;42.848;25.468;2023-04-22T23:40:03;96278.38;;;3.28;100.00
37068;BME280;22982;42.848;25.468;2023-04-22T23:45:08;96295.59;;;3.57;100.00
37068;BME280;22982;42.848;25.468;2023-04-22T23:50:11;96250.75;;;3.53;100.00
37068;BME280;22982;42.848;25.468;2023-04-22T23:55:15;96257.53;;;3.57;100.00
